ADDS TAF Data INFO
IDs: Format: Raw Decoded Include METARs

Data at: 0437 UTC 22 Apr 2018

KOLS 220354Z AUTO 30004KT 10SM CLR 19/M04 A3006 RMK AO2 SLP127 T01941039

KOLS 212320Z 2200/2224 32007KT P6SM BKN250
  FM220300 VRB03KT P6SM SCT250
  FM222000 25011G18KT P6SM SKC